Time;durP1;ratioP1;P1;durP2;ratioP2;P2;SDS_P1;SDS_P2;PMS_P1;PMS_P2;Temp;Humidity;BMP_temperature;BMP_pressure;BME280_temperature;BME280_humidity;BME280_pressure;Samples;Min_cycle;Max_cycle;Signal;HPM_P1;HPM_P2
2021/04/29 00:02:06;;;;;;;3.27;3.07;;;23.10;42.90;;;;;;5047631;28;20193;-42
2021/04/29 00:04:32;;;;;;;5.20;4.70;;;22.90;43.20;;;;;;5045638;28;20443;-42
2021/04/29 00:06:58;;;;;;;4.80;3.10;;;23.00;42.80;;;;;;5043727;28;20498;-43
2021/04/29 00:09:23;;;;;;;4.60;3.63;;;22.90;43.20;;;;;;5043753;28;21104;-43
2021/04/29 00:11:49;;;;;;;5.90;5.40;;;22.90;43.10;;;;;;5042467;28;20223;-43
2021/04/29 00:14:15;;;;;;;5.90;4.43;;;22.70;45.30;;;;;;5042503;28;20633;-43
2021/04/29 00:16:41;;;;;;;6.20;5.17;;;22.50;44.60;;;;;;5047752;28;20247;-42
2021/04/29 00:19:08;;;;;;;5.30;4.80;;;22.20;47.10;;;;;;5046415;28;20729;-41
2021/04/29 00:21:34;;;;;;;5.97;5.03;;;21.70;48.00;;;;;;5047725;28;20474;-42
2021/04/29 00:24:00;;;;;;;5.90;4.60;;;21.60;48.30;;;;;;5045684;28;20501;-44
2021/04/29 00:26:25;;;;;;;6.47;5.10;;;21.60;48.30;;;;;;5047027;28;20471;-43
2021/04/29 00:28:52;;;;;;;6.03;5.43;;;21.60;48.10;;;;;;5048754;28;20276;-42
2021/04/29 00:31:19;;;;;;;5.30;4.80;;;21.70;48.40;;;;;;5046079;28;20584;-43
2021/04/29 00:33:44;;;;;;;6.93;4.83;;;21.60;48.40;;;;;;5046387;28;20439;-42
2021/04/29 00:36:10;;;;;;;4.40;3.97;;;21.60;48.00;;;;;;5028884;28;583216;-42
2021/04/29 00:38:36;;;;;;;7.60;5.43;;;21.60;47.80;;;;;;5044538;28;20660;-43
2021/04/29 00:41:02;;;;;;;6.00;5.40;;;21.60;47.90;;;;;;5046620;28;20195;-42
2021/04/29 00:43:28;;;;;;;5.77;5.27;;;21.70;47.70;;;;;;5047984;28;20191;-43
2021/04/29 00:45:54;;;;;;;5.67;5.17;;;21.70;48.00;;;;;;5049370;28;20439;-43
2021/04/29 00:48:20;;;;;;;6.43;5.00;;;21.70;48.30;;;;;;5041426;28;20228;-44
2021/04/29 00:50:46;;;;;;;4.83;4.40;;;21.60;47.80;;;;;;5049354;28;20204;-42
2021/04/29 00:53:11;;;;;;;4.80;4.40;;;21.60;47.80;;;;;;5047021;28;20447;-42
2021/04/29 00:55:37;;;;;;;4.90;4.50;;;21.60;48.20;;;;;;5049303;28;20199;-42
2021/04/29 00:58:03;;;;;;;4.80;4.40;;;21.60;48.20;;;;;;5040519;28;20197;-42
2021/04/29 01:00:30;;;;;;;6.03;5.30;;;21.60;47.60;;;;;;5044527;28;20192;-42
2021/04/29 01:03:11;;;;;;;5.43;5.03;;;21.50;48.40;;;;;;5049592;28;20606;-43
2021/04/29 01:05:43;;;;;;;5.70;5.20;;;21.50;48.40;;;;;;5043709;28;20868;-42
2021/04/29 01:08:23;;;;;;;5.13;4.00;;;21.50;48.70;;;;;;5046623;28;20820;-43
2021/04/29 01:10:54;;;;;;;5.37;4.87;;;21.40;48.10;;;;;;5042498;28;20470;-44
2021/04/29 01:13:25;;;;;;;4.70;4.30;;;21.50;48.50;;;;;;5041840;28;21029;-42
2021/04/29 01:15:52;;;;;;;5.77;5.27;;;21.60;48.40;;;;;;5047747;28;20930;-43
2021/04/29 01:18:21;;;;;;;5.97;5.23;;;21.50;49.00;;;;;;5048996;28;20942;-42
2021/04/29 01:20:53;;;;;;;6.23;4.67;;;21.60;48.70;;;;;;5045365;28;20542;-42
2021/04/29 01:23:30;;;;;;;3.40;3.20;;;21.60;48.20;;;;;;5042765;28;20438;-46
2021/04/29 01:25:59;;;;;;;5.77;4.80;;;21.70;48.10;;;;;;5045924;28;20443;-43
2021/04/29 01:28:29;;;;;;;5.23;4.80;;;21.70;48.00;;;;;;5040418;28;20520;-44
2021/04/29 01:30:57;;;;;;;6.67;5.87;;;21.70;48.40;;;;;;5049236;28;20415;-42
2021/04/29 01:33:23;;;;;;;8.10;4.97;;;21.70;48.40;;;;;;5044702;28;20457;-44
2021/04/29 01:35:49;;;;;;;6.77;6.13;;;21.70;48.60;;;;;;5043821;28;20466;-42
2021/04/29 01:38:15;;;;;;;5.40;3.70;;;21.70;48.60;;;;;;5046346;28;20456;-42
2021/04/29 01:40:41;;;;;;;4.87;4.47;;;21.70;48.50;;;;;;5040907;28;20198;-42
2021/04/29 01:43:07;;;;;;;6.17;5.57;;;21.70;48.00;;;;;;5047343;28;20235;-43
2021/04/29 01:45:34;;;;;;;6.90;5.70;;;21.70;48.60;;;;;;5042500;28;20788;-42
2021/04/29 01:47:59;;;;;;;5.60;5.10;;;21.60;48.80;;;;;;5037038;28;21053;-42
2021/04/29 01:50:25;;;;;;;6.17;5.57;;;21.50;49.30;;;;;;5042112;28;20593;-42
2021/04/29 01:52:52;;;;;;;7.40;5.30;;;21.50;49.70;;;;;;5041497;28;20205;-45
2021/04/29 01:55:18;;;;;;;5.73;5.27;;;21.40;50.00;;;;;;5041743;28;20254;-42
2021/04/29 01:57:44;;;;;;;6.03;5.53;;;21.30;49.90;;;;;;5046367;28;20443;-42
2021/04/29 02:00:10;;;;;;;8.87;6.07;;;21.20;50.40;;;;;;5046769;28;20488;-42
2021/04/29 02:02:36;;;;;;;7.33;5.57;;;20.80;51.90;;;;;;5041234;28;20466;-42
2021/04/29 02:05:02;;;;;;;6.50;5.87;;;20.70;51.70;;;;;;5043506;28;20443;-42
2021/04/29 02:07:28;;;;;;;5.47;4.93;;;20.70;51.60;;;;;;5043885;28;20602;-44
2021/04/29 02:09:53;;;;;;;6.10;5.50;;;20.80;51.30;;;;;;5046870;28;20431;-41
2021/04/29 02:12:19;;;;;;;6.47;5.40;;;20.80;50.80;;;;;;5041166;28;20298;-41
2021/04/29 02:14:51;;;;;;;6.00;5.40;;;20.90;51.20;;;;;;5037072;28;20300;-41
2021/04/29 02:17:25;;;;;;;5.57;5.03;;;20.90;51.60;;;;;;5048148;28;20200;-41
2021/04/29 02:19:52;;;;;;;6.27;4.50;;;20.80;51.70;;;;;;5051479;28;20508;-41
2021/04/29 02:22:22;;;;;;;5.23;4.73;;;20.70;52.10;;;;;;5048910;28;20953;-43
2021/04/29 02:24:49;;;;;;;5.40;4.90;;;20.70;52.40;;;;;;5043123;28;20525;-41
2021/04/29 02:27:14;;;;;;;5.60;5.10;;;20.70;52.50;;;;;;5048774;28;20491;-41
2021/04/29 02:29:43;;;;;;;5.93;5.13;;;20.60;52.40;;;;;;5050144;28;20805;-41
2021/04/29 02:32:09;;;;;;;4.47;4.10;;;20.60;52.50;;;;;;5043532;28;20189;-42
2021/04/29 02:34:36;;;;;;;5.80;5.20;;;20.50;52.50;;;;;;5045308;28;20446;-41
2021/04/29 02:37:01;;;;;;;4.20;3.90;;;20.40;52.60;;;;;;5049674;28;20937;-42
2021/04/29 02:39:30;;;;;;;4.60;4.20;;;20.40;53.00;;;;;;5039458;28;20546;-42
2021/04/29 02:41:56;;;;;;;3.80;3.50;;;20.20;53.20;;;;;;5047020;28;20208;-41
2021/04/29 02:44:22;;;;;;;4.00;3.33;;;19.90;54.00;;;;;;5047322;28;20498;-42
2021/04/29 02:46:50;;;;;;;3.67;3.37;;;19.90;53.80;;;;;;5048434;28;20286;-41
2021/04/29 02:49:16;;;;;;;2.90;2.70;;;19.70;54.10;;;;;;5047596;28;20215;-41
2021/04/29 02:51:42;;;;;;;4.07;3.27;;;19.60;54.40;;;;;;5046467;28;20451;-41
2021/04/29 02:54:08;;;;;;;3.37;3.07;;;19.30;54.80;;;;;;5049631;28;20455;-40
2021/04/29 02:56:41;;;;;;;3.57;3.27;;;19.00;55.30;;;;;;5039249;28;20443;-41
2021/04/29 02:59:08;;;;;;;3.23;2.93;;;18.90;55.80;;;;;;5046844;28;20954;-41
2021/04/29 03:01:35;;;;;;;3.60;3.27;;;18.90;55.80;;;;;;5050505;28;20443;-42
2021/04/29 03:04:02;;;;;;;3.60;3.30;;;19.00;56.00;;;;;;5028790;28;20467;-42
2021/04/29 03:06:28;;;;;;;2.83;2.63;;;18.80;56.00;;;;;;5042151;28;21084;-41
2021/04/29 03:08:53;;;;;;;4.57;4.17;;;18.80;56.10;;;;;;5046289;28;20443;-42
2021/04/29 03:11:19;;;;;;;4.80;4.40;;;18.50;58.20;;;;;;5048165;28;20449;-41
2021/04/29 03:13:45;;;;;;;7.77;3.77;;;18.50;59.00;;;;;;5048066;28;20438;-40
2021/04/29 03:16:11;;;;;;;4.10;3.80;;;18.30;59.70;;;;;;5050034;28;20276;-41
2021/04/29 03:18:37;;;;;;;3.10;2.90;;;18.20;60.70;;;;;;5044464;28;20189;-43
2021/04/29 03:21:03;;;;;;;1.93;1.83;;;18.00;60.50;;;;;;5050576;28;20457;-40
2021/04/29 03:23:29;;;;;;;4.67;2.73;;;18.00;60.60;;;;;;5046844;28;20197;-40
2021/04/29 03:25:54;;;;;;;1.50;1.40;;;18.20;60.50;;;;;;5049220;28;20439;-41
2021/04/29 03:28:20;;;;;;;1.83;1.47;;;18.00;60.40;;;;;;5045581;28;20217;-40
2021/04/29 03:30:46;;;;;;;2.40;2.00;;;18.00;61.00;;;;;;5047004;28;20193;-40
2021/04/29 03:33:11;;;;;;;2.80;1.50;;;17.90;60.80;;;;;;5045397;28;20250;-41
2021/04/29 03:35:37;;;;;;;2.13;1.73;;;17.90;60.90;;;;;;5043283;28;20247;-40
2021/04/29 03:38:03;;;;;;;6.77;1.83;;;18.00;60.50;;;;;;5047618;28;20647;-41
2021/04/29 03:40:29;;;;;;;1.83;1.73;;;18.00;60.40;;;;;;5048310;28;20518;-40
2021/04/29 03:42:56;;;;;;;1.83;1.70;;;17.90;59.80;;;;;;5047431;28;20648;-41
2021/04/29 03:45:22;;;;;;;2.20;1.70;;;17.60;59.90;;;;;;5051470;28;20517;-40
2021/04/29 03:47:48;;;;;;;2.10;1.90;;;17.70;60.40;;;;;;5047874;28;20493;-42
2021/04/29 03:50:14;;;;;;;1.63;1.50;;;17.70;59.90;;;;;;5045068;28;20443;-41
2021/04/29 03:52:40;;;;;;;2.33;1.80;;;17.80;59.50;;;;;;5043936;28;20201;-41
2021/04/29 03:55:06;;;;;;;2.07;1.97;;;17.80;59.20;;;;;;5042677;28;20238;-40
2021/04/29 03:57:31;;;;;;;1.77;1.67;;;17.80;58.90;;;;;;5050143;28;20259;-43
2021/04/29 03:59:57;;;;;;;1.80;1.70;;;17.80;58.80;;;;;;5048339;28;20550;-40
2021/04/29 04:02:23;;;;;;;1.77;1.67;;;17.90;58.50;;;;;;5043636;28;20201;-40
2021/04/29 04:04:48;;;;;;;1.73;1.63;;;18.00;58.20;;;;;;5047144;28;20199;-41
2021/04/29 04:07:14;;;;;;;4.93;1.80;;;18.20;57.90;;;;;;5047145;28;20679;-41
2021/04/29 04:09:39;;;;;;;1.60;1.50;;;18.30;57.80;;;;;;5044275;28;20560;-40
2021/04/29 04:12:06;;;;;;;3.13;1.90;;;18.40;57.70;;;;;;5044179;28;20658;-41
2021/04/29 04:14:32;;;;;;;2.00;1.50;;;18.40;57.70;;;;;;5047091;28;20724;-41
2021/04/29 04:16:57;;;;;;;1.70;1.60;;;18.50;57.30;;;;;;5051881;28;20506;-42
2021/04/29 04:19:23;;;;;;;1.50;1.40;;;18.50;57.00;;;;;;5046091;28;20714;-41
2021/04/29 04:21:48;;;;;;;1.67;1.57;;;18.60;56.80;;;;;;5049082;28;20204;-41
2021/04/29 04:24:14;;;;;;;1.50;1.40;;;18.60;56.70;;;;;;5042711;28;20250;-40
2021/04/29 04:26:40;;;;;;;1.53;1.43;;;18.60;56.60;;;;;;5042008;28;20691;-41
2021/04/29 04:29:05;;;;;;;1.50;1.40;;;18.70;56.30;;;;;;5046415;28;20197;-40
2021/04/29 04:31:31;;;;;;;1.30;1.20;;;18.70;56.00;;;;;;5043430;28;20197;-42
2021/04/29 04:33:57;;;;;;;3.27;1.33;;;18.70;55.80;;;;;;5041176;28;20200;-40
2021/04/29 04:36:22;;;;;;;1.50;1.30;;;18.70;55.60;;;;;;5048526;28;20278;-41
2021/04/29 04:38:49;;;;;;;1.97;1.73;;;18.70;55.20;;;;;;5049580;28;20193;-41
2021/04/29 04:41:14;;;;;;;1.63;1.53;;;18.70;55.10;;;;;;5043796;28;20275;-41
2021/04/29 04:43:40;;;;;;;1.70;1.60;;;18.70;55.00;;;;;;5043636;28;20538;-41
2021/04/29 04:46:06;;;;;;;1.63;1.53;;;18.80;54.90;;;;;;5041206;28;20234;-42
2021/04/29 04:48:31;;;;;;;1.43;1.33;;;18.80;54.70;;;;;;5048702;28;20735;-41
2021/04/29 04:50:57;;;;;;;6.07;1.70;;;18.80;54.50;;;;;;5045429;28;20253;-40
2021/04/29 04:53:23;;;;;;;3.73;1.40;;;18.90;54.50;;;;;;5047538;28;20726;-40
2021/04/29 04:55:50;;;;;;;2.70;1.40;;;18.90;54.20;;;;;;5047108;28;20239;-40
2021/04/29 04:58:17;;;;;;;1.40;1.30;;;19.10;53.40;;;;;;5047277;28;20501;-41
2021/04/29 05:00:43;;;;;;;1.37;1.27;;;19.40;52.80;;;;;;5043014;28;20482;-40
2021/04/29 05:03:09;;;;;;;1.40;1.30;;;19.60;52.10;;;;;;5046503;28;20542;-41
2021/04/29 05:05:35;;;;;;;2.03;0.93;;;19.80;51.60;;;;;;5042256;28;21062;-41
2021/04/29 05:08:01;;;;;;;6.53;1.13;;;19.90;51.20;;;;;;5046282;28;20490;-41
2021/04/29 05:10:31;;;;;;;1.20;1.10;;;20.00;50.90;;;;;;5046619;28;20715;-41
2021/04/29 05:12:57;;;;;;;1.30;1.20;;;20.10;50.70;;;;;;5042550;28;20200;-42
2021/04/29 05:15:22;;;;;;;1.33;1.23;;;20.20;50.50;;;;;;5040419;28;20485;-41
2021/04/29 05:17:51;;;;;;;1.77;1.67;;;20.20;50.20;;;;;;5041351;28;20471;-41
2021/04/29 05:20:17;;;;;;;1.40;1.30;;;20.30;50.20;;;;;;5047405;28;20189;-41
2021/04/29 05:22:43;;;;;;;1.30;1.20;;;20.40;50.40;;;;;;5045218;28;20434;-40
2021/04/29 05:25:09;;;;;;;1.40;1.13;;;20.40;50.20;;;;;;5046776;28;20431;-41
2021/04/29 05:27:35;;;;;;;3.00;1.73;;;20.40;50.30;;;;;;5043646;28;20566;-41
2021/04/29 05:30:00;;;;;;;2.80;2.00;;;20.50;50.30;;;;;;5049861;28;20613;-41
2021/04/29 05:32:26;;;;;;;1.50;1.40;;;20.60;50.40;;;;;;5042287;28;20567;-41
2021/04/29 05:34:51;;;;;;;1.67;1.40;;;20.50;50.50;;;;;;5039564;28;20266;-41
2021/04/29 05:37:17;;;;;;;2.03;1.80;;;20.60;50.50;;;;;;5028781;28;20254;-41
2021/04/29 05:39:44;;;;;;;1.90;1.80;;;20.60;50.50;;;;;;5050017;28;20201;-41
2021/04/29 05:42:10;;;;;;;1.90;1.60;;;20.60;50.70;;;;;;5047998;28;20189;-41
2021/04/29 05:44:35;;;;;;;1.80;1.63;;;20.50;50.50;;;;;;5050154;28;20774;-41
2021/04/29 05:47:01;;;;;;;2.67;2.07;;;20.40;50.70;;;;;;5044305;28;20217;-41
2021/04/29 05:49:27;;;;;;;2.40;1.60;;;20.40;50.70;;;;;;5045701;28;20185;-41
2021/04/29 05:51:52;;;;;;;1.77;1.50;;;20.50;50.50;;;;;;5035633;28;20431;-42
2021/04/29 05:54:18;;;;;;;2.23;1.30;;;20.40;50.10;;;;;;5037914;28;20246;-41
2021/04/29 05:56:43;;;;;;;1.77;1.20;;;20.40;49.60;;;;;;5036148;28;20262;-41
2021/04/29 05:59:09;;;;;;;1.40;1.30;;;20.40;50.10;;;;;;5040525;28;20542;-41
2021/04/29 06:01:34;;;;;;;1.50;1.40;;;20.40;50.00;;;;;;5038988;28;20196;-41
2021/04/29 06:04:01;;;;;;;1.77;1.60;;;20.50;49.80;;;;;;5046834;28;20286;-41
2021/04/29 06:06:26;;;;;;;2.00;1.53;;;20.50;49.60;;;;;;5041479;28;20553;-41
2021/04/29 06:08:52;;;;;;;1.70;1.60;;;20.50;48.80;;;;;;5040887;28;20430;-41
2021/04/29 06:11:17;;;;;;;4.40;1.40;;;20.40;48.50;;;;;;5036276;28;20290;-41
2021/04/29 06:13:45;;;;;;;1.80;1.60;;;20.30;48.60;;;;;;5046850;28;20615;-42
2021/04/29 06:16:11;;;;;;;2.13;1.80;;;20.30;48.90;;;;;;5040965;28;20343;-42
2021/04/29 06:18:37;;;;;;;1.90;1.80;;;20.30;48.80;;;;;;5054331;28;20460;-40
2021/04/29 06:21:03;;;;;;;3.27;2.17;;;20.30;48.80;;;;;;5046953;28;20810;-41
2021/04/29 06:23:28;;;;;;;3.40;2.37;;;20.20;48.30;;;;;;5044641;28;20566;-41
2021/04/29 06:25:54;;;;;;;3.33;1.80;;;20.10;47.90;;;;;;5051094;28;20184;-42
2021/04/29 06:28:19;;;;;;;1.97;1.77;;;20.10;48.10;;;;;;5041120;28;20628;-41
2021/04/29 06:30:45;;;;;;;2.60;1.80;;;20.10;48.20;;;;;;5047185;28;20204;-41
2021/04/29 06:33:10;;;;;;;2.80;2.20;;;20.20;48.50;;;;;;5045700;28;20684;-41
2021/04/29 06:35:36;;;;;;;3.70;2.80;;;20.20;48.30;;;;;;5051118;28;20335;-41
2021/04/29 06:38:02;;;;;;;2.70;2.50;;;20.10;46.80;;;;;;5053758;28;20192;-41
2021/04/29 06:40:27;;;;;;;3.67;2.30;;;20.00;47.20;;;;;;5047818;28;20193;-40
2021/04/29 06:42:53;;;;;;;2.70;2.10;;;19.90;47.30;;;;;;5052774;28;20204;-41
2021/04/29 06:45:19;;;;;;;6.33;2.30;;;19.90;47.90;;;;;;5053411;28;20557;-41
2021/04/29 06:47:44;;;;;;;4.77;2.63;;;20.00;48.20;;;;;;5052972;28;20224;-41
2021/04/29 06:50:10;;;;;;;5.47;2.30;;;19.90;47.80;;;;;;5046817;28;20194;-41
2021/04/29 06:52:36;;;;;;;3.40;2.30;;;19.90;48.00;;;;;;5042085;28;20259;-41
2021/04/29 06:55:02;;;;;;;3.17;2.47;;;20.10;48.00;;;;;;5053121;28;20415;-41
2021/04/29 06:57:28;;;;;;;2.63;2.10;;;20.30;47.70;;;;;;5052285;28;20193;-41
2021/04/29 06:59:53;;;;;;;2.10;1.93;;;20.40;47.00;;;;;;5052654;28;20941;-41
2021/04/29 07:02:19;;;;;;;2.20;2.00;;;20.60;47.10;;;;;;5048414;28;20220;-41
2021/04/29 07:04:45;;;;;;;2.37;2.00;;;20.70;47.00;;;;;;5050980;28;20283;-41
2021/04/29 07:07:11;;;;;;;3.00;2.80;;;20.80;46.70;;;;;;5052539;28;21018;-41
2021/04/29 07:09:37;;;;;;;3.17;2.40;;;20.90;46.40;;;;;;5053502;28;20542;-41
2021/04/29 07:12:03;;;;;;;3.43;2.70;;;20.80;46.80;;;;;;5051576;28;20438;-41
2021/04/29 07:14:29;;;;;;;3.40;2.83;;;20.70;46.70;;;;;;5047033;28;20197;-41
2021/04/29 07:16:54;;;;;;;6.03;3.23;;;20.70;47.10;;;;;;5038697;28;20446;-41
2021/04/29 07:19:20;;;;;;;2.90;2.30;;;20.70;46.10;;;;;;5036738;28;20640;-41
2021/04/29 07:21:45;;;;;;;3.27;2.30;;;20.80;46.80;;;;;;5051064;28;20185;-42
2021/04/29 07:24:11;;;;;;;5.17;3.90;;;21.10;47.10;;;;;;5043136;28;20718;-41
2021/04/29 07:26:37;;;;;;;3.77;3.07;;;21.40;46.30;;;;;;5045193;28;20204;-41
2021/04/29 07:29:04;;;;;;;5.33;3.13;;;21.60;46.00;;;;;;5047722;28;20197;-42
2021/04/29 07:31:30;;;;;;;4.00;3.60;;;21.70;44.90;;;;;;5040737;28;20192;-42
2021/04/29 07:33:56;;;;;;;5.23;4.80;;;21.60;45.00;;;;;;5051752;28;20423;-43
2021/04/29 07:36:21;;;;;;;5.30;4.80;;;21.20;44.70;;;;;;5052005;28;20972;-42
2021/04/29 07:38:47;;;;;;;4.80;4.40;;;21.10;45.00;;;;;;5035494;28;20197;-41
2021/04/29 07:41:14;;;;;;;6.00;4.57;;;21.10;45.60;;;;;;5045305;28;20211;-42
2021/04/29 07:43:39;;;;;;;5.50;5.00;;;21.10;46.00;;;;;;5046802;28;20193;-42
2021/04/29 07:46:05;;;;;;;6.10;4.80;;;20.90;44.90;;;;;;5042981;28;20781;-42
2021/04/29 07:48:31;;;;;;;5.00;4.60;;;20.90;45.30;;;;;;5037466;28;20252;-41
2021/04/29 07:50:56;;;;;;;7.70;4.87;;;20.80;44.30;;;;;;5047180;28;20215;-42
2021/04/29 07:53:22;;;;;;;5.50;4.07;;;20.70;44.90;;;;;;5047118;28;20268;-43
2021/04/29 07:55:47;;;;;;;4.53;4.13;;;20.50;45.80;;;;;;5047982;28;20269;-43
2021/04/29 07:58:13;;;;;;;4.80;4.40;;;20.70;46.90;;;;;;5038071;28;20224;-42
2021/04/29 08:00:39;;;;;;;4.93;4.47;;;20.50;46.40;;;;;;5041107;28;20211;-42
2021/04/29 08:03:05;;;;;;;6.20;3.93;;;20.30;45.80;;;;;;5047882;28;20204;-41
2021/04/29 08:05:31;;;;;;;6.03;4.20;;;20.70;45.70;;;;;;5038935;28;20304;-42
2021/04/29 08:07:58;;;;;;;5.20;4.77;;;20.90;44.70;;;;;;5035865;28;20232;-43
2021/04/29 08:10:23;;;;;;;7.60;4.43;;;21.20;44.60;;;;;;5049696;28;20438;-41
2021/04/29 08:12:49;;;;;;;6.23;4.67;;;21.30;43.80;;;;;;5034902;28;20844;-42
2021/04/29 08:15:15;;;;;;;5.67;5.17;;;21.10;42.90;;;;;;5048351;28;20224;-42
2021/04/29 08:17:40;;;;;;;5.90;4.20;;;21.20;44.60;;;;;;5049315;28;20224;-43
2021/04/29 08:20:07;;;;;;;7.73;5.33;;;21.40;44.30;;;;;;5051875;28;20200;-42
2021/04/29 08:22:33;;;;;;;5.93;5.37;;;21.50;42.90;;;;;;5050527;28;20193;-42
2021/04/29 08:24:58;;;;;;;7.00;4.90;;;21.30;42.10;;;;;;5042902;28;20783;-42
2021/04/29 08:27:24;;;;;;;5.37;4.83;;;21.10;42.50;;;;;;5045250;28;20315;-42
2021/04/29 08:29:50;;;;;;;5.90;5.00;;;21.20;43.30;;;;;;5043565;28;20211;-42
2021/04/29 08:32:16;;;;;;;7.53;4.30;;;21.00;43.60;;;;;;5047142;28;20478;-42
2021/04/29 08:34:41;;;;;;;11.03;5.00;;;21.00;43.90;;;;;;5048186;28;20283;-42
2021/04/29 08:37:07;;;;;;;5.57;5.07;;;20.90;43.90;;;;;;5045206;28;20211;-42
2021/04/29 08:39:33;;;;;;;6.77;6.17;;;21.00;44.50;;;;;;5044992;28;20196;-44
2021/04/29 08:41:58;;;;;;;8.43;6.07;;;20.70;43.70;;;;;;5046894;28;20276;-43
2021/04/29 08:44:24;;;;;;;12.90;6.13;;;20.60;43.60;;;;;;5048284;28;20197;-41
2021/04/29 08:46:50;;;;;;;6.67;5.80;;;20.40;43.10;;;;;;5042188;28;20216;-43
2021/04/29 08:49:16;;;;;;;7.50;6.23;;;20.70;43.60;;;;;;5047153;28;20208;-42
2021/04/29 08:51:44;;;;;;;8.83;5.80;;;20.30;42.70;;;;;;5049831;28;20205;-47
2021/04/29 08:54:10;;;;;;;6.43;5.63;;;20.40;43.60;;;;;;5038348;28;20948;-42
2021/04/29 08:56:35;;;;;;;7.90;6.00;;;20.40;43.10;;;;;;5036725;28;20426;-47
2021/04/29 08:59:01;;;;;;;7.07;6.37;;;20.50;43.00;;;;;;5048213;28;20723;-43
2021/04/29 09:01:37;;;;;;;7.33;6.63;;;20.70;42.80;;;;;;5040650;28;20192;-43
2021/04/29 09:04:11;;;;;;;8.10;6.43;;;20.70;42.90;;;;;;5047043;28;20196;-42
2021/04/29 09:06:38;;;;;;;7.13;6.37;;;20.80;42.50;;;;;;5042481;28;20445;-42
2021/04/29 09:09:04;;;;;;;7.90;6.97;;;20.70;42.40;;;;;;5044140;28;20484;-44
2021/04/29 09:11:29;;;;;;;6.57;5.97;;;20.70;42.60;;;;;;5037998;28;20438;-42
2021/04/29 09:14:07;;;;;;;5.90;5.40;;;20.70;42.20;;;;;;5046101;28;20431;-43
2021/04/29 09:16:44;;;;;;;6.47;5.87;;;20.80;42.10;;;;;;5044605;28;20257;-44
2021/04/29 09:19:23;;;;;;;6.60;5.90;;;20.90;41.80;;;;;;5046493;28;20440;-45
2021/04/29 09:21:49;;;;;;;8.30;7.10;;;20.50;42.50;;;;;;5044057;28;20828;-42
2021/04/29 09:24:15;;;;;;;7.30;6.70;;;20.10;41.80;;;;;;5048282;28;20442;-42
2021/04/29 09:26:42;;;;;;;6.57;5.83;;;20.10;42.60;;;;;;5037103;28;20432;-41
2021/04/29 09:29:15;;;;;;;6.87;5.57;;;20.30;42.60;;;;;;5045823;28;20280;-43
2021/04/29 09:31:45;;;;;;;7.47;6.67;;;20.40;42.80;;;;;;5042561;28;20438;-43
2021/04/29 09:34:11;;;;;;;6.17;5.57;;;20.30;42.40;;;;;;5051085;28;20438;-42
2021/04/29 09:36:43;;;;;;;7.80;6.97;;;20.40;42.70;;;;;;5052487;28;20478;-44
2021/04/29 09:39:15;;;;;;;9.83;7.20;;;20.40;42.00;;;;;;5052427;28;20558;-42
2021/04/29 09:41:50;;;;;;;7.83;6.67;;;20.30;42.50;;;;;;5044424;28;20439;-45
2021/04/29 09:44:21;;;;;;;6.93;6.30;;;20.30;42.80;;;;;;5045859;28;20439;-43
2021/04/29 09:46:49;;;;;;;7.90;6.10;;;20.10;42.70;;;;;;5050547;28;20506;-42
2021/04/29 09:49:38;;;;;;;10.47;7.30;;;19.90;43.80;;;;;;5048232;28;20956;-43
2021/04/29 09:52:25;;;;;;;8.27;7.30;;;19.80;47.60;;;;;;5045263;28;20478;-42
2021/04/29 09:54:55;;;;;;;6.07;5.57;;;19.20;50.90;;;;;;5039876;28;20444;-43
2021/04/29 09:57:26;;;;;;;7.30;6.20;;;18.90;52.10;;;;;;5053250;28;20442;-43
2021/04/29 09:59:58;;;;;;;6.70;6.00;;;19.00;52.80;;;;;;5053730;28;20461;-43
2021/04/29 10:02:25;;;;;;;8.17;6.33;;;19.10;53.80;;;;;;5046584;28;20442;-43
2021/04/29 10:04:52;;;;;;;8.13;6.20;;;18.90;53.90;;;;;;5049737;28;20557;-44
2021/04/29 10:07:19;;;;;;;7.30;6.70;;;18.90;53.90;;;;;;5047494;28;20497;-42
2021/04/29 10:09:46;;;;;;;7.30;6.60;;;18.90;53.90;;;;;;5049683;28;20473;-43
2021/04/29 10:12:17;;;;;;;9.63;7.23;;;18.90;53.90;;;;;;5048080;28;20434;-42
2021/04/29 10:14:47;;;;;;;10.13;6.63;;;18.90;54.20;;;;;;5048878;28;20652;-43
2021/04/29 10:17:14;;;;;;;7.90;6.67;;;18.80;53.30;;;;;;5039834;28;20443;-42
2021/04/29 10:19:43;;;;;;;8.07;6.27;;;18.90;53.30;;;;;;5049480;28;20764;-43
2021/04/29 10:22:10;;;;;;;6.83;5.87;;;18.90;52.60;;;;;;5048312;28;20586;-42
2021/04/29 10:24:36;;;;;;;9.17;8.20;;;19.10;53.60;;;;;;5049661;28;20434;-43
2021/04/29 10:27:07;;;;;;;8.67;6.80;;;19.30;53.60;;;;;;5046037;28;20488;-43
2021/04/29 10:29:33;;;;;;;9.40;5.93;;;19.50;53.70;;;;;;5049269;28;20511;-42
2021/04/29 10:32:02;;;;;;;10.53;8.07;;;19.80;53.50;;;;;;5047592;28;20935;-45
2021/04/29 10:34:43;;;;;;;7.53;6.93;;;20.10;53.10;;;;;;5052195;28;20435;-42
2021/04/29 10:37:23;;;;;;;7.80;7.00;;;20.20;52.50;;;;;;5049183;28;20458;-42
2021/04/29 10:39:55;;;;;;;7.23;6.23;;;20.30;52.40;;;;;;5049086;28;20474;-43
2021/04/29 10:42:22;;;;;;;7.97;7.17;;;20.50;50.50;;;;;;5044268;28;20443;-45
2021/04/29 10:44:50;;;;;;;10.67;7.00;;;20.70;50.30;;;;;;5045412;28;20435;-43
2021/04/29 10:47:45;;;;;;;6.93;6.27;;;20.90;50.10;;;;;;5041426;28;20467;-44
2021/04/29 10:50:20;;;;;;;7.40;6.40;;;21.10;49.40;;;;;;5037139;28;20447;-43
2021/04/29 10:52:53;;;;;;;7.80;6.20;;;21.20;48.30;;;;;;5046942;28;20442;-45
2021/04/29 10:55:29;;;;;;;5.87;5.37;;;21.10;47.50;;;;;;5038564;28;20439;-42
2021/04/29 10:57:56;;;;;;;8.90;6.20;;;20.80;47.90;;;;;;5040874;28;20473;-43
2021/04/29 11:00:24;;;;;;;9.63;6.50;;;20.80;48.40;;;;;;5044060;28;20440;-42
2021/04/29 11:03:04;;;;;;;6.20;5.60;;;20.80;48.80;;;;;;5049235;28;20496;-42
2021/04/29 11:05:32;;;;;;;7.73;6.53;;;20.50;48.80;;;;;;5051304;28;20902;-43
2021/04/29 11:08:09;;;;;;;7.07;6.37;;;20.60;48.70;;;;;;5048986;28;20497;-44
2021/04/29 11:10:37;;;;;;;7.47;6.90;;;20.70;49.10;;;;;;5042461;28;20437;-43
2021/04/29 11:13:05;;;;;;;7.03;6.33;;;20.70;48.90;;;;;;5036847;28;20428;-44
2021/04/29 11:15:38;;;;;;;8.07;5.47;;;20.70;48.90;;;;;;5040077;28;20477;-42
2021/04/29 11:18:06;;;;;;;6.17;4.70;;;20.50;48.50;;;;;;5049484;28;20469;-44
2021/04/29 11:20:48;;;;;;;7.10;4.93;;;20.20;47.20;;;;;;5047215;28;20439;-43
2021/04/29 11:23:16;;;;;;;6.73;4.00;;;19.70;46.40;;;;;;5049306;28;20451;-45
2021/04/29 11:25:42;;;;;;;4.90;4.50;;;19.00;45.90;;;;;;5041642;28;20443;-44
2021/04/29 11:28:08;;;;;;;4.93;4.47;;;18.70;46.60;;;;;;5039861;28;20501;-47
2021/04/29 11:30:35;;;;;;;6.47;3.97;;;18.40;46.80;;;;;;5049324;28;20442;-42
2021/04/29 11:33:07;;;;;;;4.40;3.87;;;18.30;47.60;;;;;;5050174;28;20204;-43
2021/04/29 11:35:35;;;;;;;5.60;3.83;;;18.10;47.20;;;;;;5047122;28;20557;-41
2021/04/29 11:38:02;;;;;;;5.27;4.77;;;17.90;47.40;;;;;;5051584;28;20465;-41
2021/04/29 11:40:30;;;;;;;9.00;5.30;;;18.00;47.40;;;;;;5033703;28;20440;-42
2021/04/29 11:42:57;;;;;;;7.00;4.10;;;18.10;47.60;;;;;;5045528;28;20497;-42
2021/04/29 11:45:26;;;;;;;5.37;4.23;;;18.20;47.30;;;;;;5043326;28;20788;-43
2021/04/29 11:48:01;;;;;;;5.77;4.67;;;18.20;46.90;;;;;;5039071;28;20490;-42
2021/04/29 11:50:33;;;;;;;5.40;3.83;;;18.20;46.90;;;;;;5045689;28;20461;-42
2021/04/29 11:53:09;;;;;;;6.23;3.93;;;18.10;46.80;;;;;;5047589;28;20989;-42
2021/04/29 11:55:37;;;;;;;5.00;4.47;;;18.30;47.90;;;;;;5042592;28;20528;-43
2021/04/29 11:58:09;;;;;;;4.87;4.43;;;18.60;47.10;;;;;;5037755;28;20427;-41
2021/04/29 12:00:37;;;;;;;5.33;4.23;;;18.50;45.90;;;;;;5047552;28;20431;-42
2021/04/29 12:03:08;;;;;;;4.10;3.70;;;18.70;46.90;;;;;;5043622;28;20436;-42
2021/04/29 12:05:42;;;;;;;4.97;4.53;;;19.00;47.10;;;;;;5042741;28;20439;-41
2021/04/29 12:08:22;;;;;;;4.90;4.43;;;19.10;45.50;;;;;;5042877;28;20577;-41
2021/04/29 12:11:02;;;;;;;4.57;3.80;;;19.00;45.50;;;;;;5032046;28;20439;-42
2021/04/29 12:13:53;;;;;;;7.00;4.20;;;19.00;45.40;;;;;;5041757;28;20504;-41
2021/04/29 12:16:25;;;;;;;5.50;4.70;;;19.10;45.50;;;;;;5031313;28;20440;-42
2021/04/29 12:18:56;;;;;;;4.70;4.20;;;19.00;44.90;;;;;;5040915;28;20523;-42
2021/04/29 12:21:24;;;;;;;4.73;3.93;;;19.00;45.80;;;;;;5041990;28;20456;-42
2021/04/29 12:24:07;;;;;;;6.93;4.07;;;19.20;45.30;;;;;;5035804;28;20439;-42
2021/04/29 12:26:34;;;;;;;5.00;4.50;;;19.20;44.50;;;;;;5049358;28;20432;-42
2021/04/29 12:29:03;;;;;;;4.40;4.00;;;19.40;46.00;;;;;;5047280;28;20455;-42
2021/04/29 12:31:29;;;;;;;7.00;3.90;;;19.80;44.60;;;;;;5051086;28;20439;-42
2021/04/29 12:33:55;;;;;;;5.00;3.67;;;19.90;44.30;;;;;;5050545;28;20447;-42
2021/04/29 12:36:23;;;;;;;3.60;3.30;;;19.80;43.30;;;;;;5048828;28;20228;-42
2021/04/29 12:38:49;;;;;;;3.23;2.93;;;19.70;42.60;;;;;;5047840;28;20192;-42
2021/04/29 12:41:16;;;;;;;4.03;3.63;;;19.70;43.70;;;;;;5027300;28;20427;-42
2021/04/29 12:43:42;;;;;;;3.60;3.30;;;19.80;43.00;;;;;;5044051;28;20527;-42
2021/04/29 12:46:08;;;;;;;4.00;3.00;;;19.70;42.80;;;;;;5049583;28;20914;-41
2021/04/29 12:48:38;;;;;;;3.83;3.53;;;19.50;42.80;;;;;;5049412;28;20509;-42